Time;durP1;ratioP1;P1;durP2;ratioP2;P2;SDS_P1;SDS_P2;PMS_P1;PMS_P2;Temp;Humidity;BMP_temperature;BMP_pressure;BME280_temperature;BME280_humidity;BME280_pressure;Samples;Min_cycle;Max_cycle;Signal;HPM_P1;HPM_P2
2021/05/16 00:00:35;;;;;;;;;17.00;16.00;;;;;;;;8725515;40;10142;-63
2021/05/16 00:06:37;;;;;;;;;12.67;12.67;;;;;;;;8724856;40;10051;-60
2021/05/16 00:12:40;;;;;;;;;16.00;15.33;;;;;;;;8724673;40;10003;-58
2021/05/16 00:18:42;;;;;;;;;14.67;14.67;;;;;;;;8725040;40;10128;-58
2021/05/16 00:24:44;;;;;;;;;14.33;14.33;;;;;;;;8724140;40;10028;-58
2021/05/16 00:30:46;;;;;;;;;17.00;15.33;;;;;;;;8724412;40;10031;-58
2021/05/16 00:36:48;;;;;;;;;16.33;16.33;;;;;;;;8725607;40;10801;-58
2021/05/16 00:42:50;;;;;;;;;13.33;11.67;;;;;;;;8725149;40;10265;-59
2021/05/16 00:48:52;;;;;;;;;14.00;13.67;;;;;;;;8726371;40;10482;-58
2021/05/16 00:54:55;;;;;;;;;13.67;13.67;;;;;;;;8728121;40;10627;-58
2021/05/16 01:00:58;;;;;;;;;13.33;12.33;;;;;;;;8727624;40;9986;-57
2021/05/16 01:07:02;;;;;;;;;12.67;12.67;;;;;;;;8726798;40;10033;-59
2021/05/16 01:13:06;;;;;;;;;12.00;12.00;;;;;;;;8727633;40;9953;-59
2021/05/16 01:19:09;;;;;;;;;15.00;14.67;;;;;;;;8729758;40;10034;-57
2021/05/16 01:25:12;;;;;;;;;16.33;14.00;;;;;;;;8727086;40;10593;-57
2021/05/16 01:31:14;;;;;;;;;18.33;15.00;;;;;;;;8727891;40;10071;-58
2021/05/16 01:37:18;;;;;;;;;16.00;16.00;;;;;;;;8728430;40;10099;-58
2021/05/16 01:43:21;;;;;;;;;24.00;24.00;;;;;;;;8726737;40;10148;-59
2021/05/16 01:49:23;;;;;;;;;25.67;25.67;;;;;;;;8726358;40;10144;-58
2021/05/16 01:55:25;;;;;;;;;31.00;26.00;;;;;;;;8727000;40;10445;-57
2021/05/16 02:01:29;;;;;;;;;29.67;28.00;;;;;;;;8727368;40;10283;-59
2021/05/16 02:07:37;;;;;;;;;28.33;26.33;;;;;;;;8728256;40;10639;-58
2021/05/16 02:13:41;;;;;;;;;24.33;23.00;;;;;;;;8725702;40;10081;-57
2021/05/16 02:19:48;;;;;;;;;21.00;21.00;;;;;;;;8749131;40;10114;-58
2021/05/16 02:25:51;;;;;;;;;20.33;20.33;;;;;;;;8748343;40;10188;-58
2021/05/16 02:31:58;;;;;;;;;19.67;18.33;;;;;;;;8748247;40;9991;-59
2021/05/16 02:38:05;;;;;;;;;16.00;16.00;;;;;;;;8751088;40;10537;-58
2021/05/16 02:44:08;;;;;;;;;16.00;16.00;;;;;;;;8748953;40;10724;-59
2021/05/16 02:50:12;;;;;;;;;17.67;17.33;;;;;;;;8750718;40;10057;-58
2021/05/16 02:56:34;;;;;;;;;17.00;17.00;;;;;;;;8749956;40;10073;-59
2021/05/16 03:02:36;;;;;;;;;20.33;17.33;;;;;;;;8747394;40;10590;-58
2021/05/16 03:08:38;;;;;;;;;17.33;17.33;;;;;;;;8748433;40;10119;-59
2021/05/16 03:14:41;;;;;;;;;17.33;17.33;;;;;;;;8749030;40;10088;-58
2021/05/16 03:20:43;;;;;;;;;7.67;7.00;;;;;;;;8749211;40;10212;-57
2021/05/16 03:26:48;;;;;;;;;16.33;15.67;;;;;;;;8748693;40;10273;-59
2021/05/16 03:32:50;;;;;;;;;19.00;19.00;;;;;;;;8749324;40;10087;-58
2021/05/16 03:38:52;;;;;;;;;24.67;21.33;;;;;;;;8749812;40;10061;-58
2021/05/16 03:44:55;;;;;;;;;20.67;20.00;;;;;;;;8749500;40;10090;-59
2021/05/16 03:50:57;;;;;;;;;18.67;17.33;;;;;;;;8749397;40;10114;-58
2021/05/16 03:56:59;;;;;;;;;20.00;17.67;;;;;;;;8749878;40;10067;-58
2021/05/16 04:03:01;;;;;;;;;19.00;19.00;;;;;;;;8749700;40;10055;-57
2021/05/16 04:09:04;;;;;;;;;15.67;15.67;;;;;;;;8748774;40;10082;-58
2021/05/16 04:15:07;;;;;;;;;21.00;18.67;;;;;;;;8750218;40;10123;-58
2021/05/16 04:21:09;;;;;;;;;16.33;16.33;;;;;;;;8749348;40;10057;-58
2021/05/16 04:27:11;;;;;;;;;17.33;17.33;;;;;;;;8751796;40;10273;-58
2021/05/16 04:33:13;;;;;;;;;22.00;17.67;;;;;;;;8751480;40;10222;-58
2021/05/16 04:39:16;;;;;;;;;22.00;20.67;;;;;;;;8728346;40;10067;-59
2021/05/16 04:45:19;;;;;;;;;20.00;20.00;;;;;;;;8729417;40;10037;-59
2021/05/16 04:51:21;;;;;;;;;15.00;15.00;;;;;;;;8728105;40;10636;-58
2021/05/16 04:57:23;;;;;;;;;25.33;22.33;;;;;;;;8728700;40;10601;-58
2021/05/16 05:03:28;;;;;;;;;22.33;22.00;;;;;;;;8727873;40;10125;-58
2021/05/16 05:09:33;;;;;;;;;22.67;20.00;;;;;;;;8727686;40;10078;-58
2021/05/16 05:15:35;;;;;;;;;22.33;22.33;;;;;;;;8727839;40;10186;-59
2021/05/16 05:21:37;;;;;;;;;25.33;25.33;;;;;;;;8727453;40;10139;-59
2021/05/16 05:27:39;;;;;;;;;26.33;24.00;;;;;;;;8739095;40;10094;-58
2021/05/16 05:33:40;;;;;;;;;28.33;27.00;;;;;;;;8750437;40;10147;-58
2021/05/16 05:39:42;;;;;;;;;30.00;28.67;;;;;;;;8750743;40;10086;-58
2021/05/16 05:45:44;;;;;;;;;32.67;31.33;;;;;;;;8749476;40;10072;-59
2021/05/16 05:51:46;;;;;;;;;33.67;32.33;;;;;;;;8751264;40;10126;-59
2021/05/16 05:57:48;;;;;;;;;37.33;34.00;;;;;;;;8750178;40;10084;-59
2021/05/16 06:03:50;;;;;;;;;36.33;36.00;;;;;;;;8751179;40;10083;-59
2021/05/16 06:09:52;;;;;;;;;42.00;36.33;;;;;;;;8750428;40;10037;-58
2021/05/16 06:15:54;;;;;;;;;39.67;37.67;;;;;;;;8751932;40;10091;-59
2021/05/16 06:21:56;;;;;;;;;42.33;38.67;;;;;;;;8750633;40;10030;-59
2021/05/16 06:27:59;;;;;;;;;41.00;36.67;;;;;;;;8751035;40;10023;-59
2021/05/16 06:34:01;;;;;;;;;45.00;39.33;;;;;;;;8750054;40;10011;-59
2021/05/16 06:40:03;;;;;;;;;39.00;36.67;;;;;;;;8750184;40;10118;-59
2021/05/16 06:46:06;;;;;;;;;51.00;42.67;;;;;;;;8749748;40;10110;-59
2021/05/16 06:52:07;;;;;;;;;33.67;32.33;;;;;;;;8750405;40;10019;-59
2021/05/16 06:58:09;;;;;;;;;40.00;33.67;;;;;;;;8749839;40;10136;-58
2021/05/16 07:04:12;;;;;;;;;31.33;30.67;;;;;;;;8750860;40;10133;-59
2021/05/16 07:10:14;;;;;;;;;28.00;27.67;;;;;;;;8750712;40;11047;-59
2021/05/16 07:16:16;;;;;;;;;25.33;24.67;;;;;;;;8750808;40;10651;-60
2021/05/16 07:22:18;;;;;;;;;32.00;28.67;;;;;;;;8750716;40;10590;-60
2021/05/16 07:28:20;;;;;;;;;28.00;28.00;;;;;;;;8749715;40;10109;-59
2021/05/16 07:34:22;;;;;;;;;31.33;28.33;;;;;;;;8749553;40;10696;-59
2021/05/16 07:40:26;;;;;;;;;30.25;27.50;;;;;;;;8750458;40;11676;-59
2021/05/16 07:46:28;;;;;;;;;30.25;27.50;;;;;;;;8749837;40;10982;-61
2021/05/16 07:52:30;;;;;;;;;24.25;23.50;;;;;;;;8749143;40;10714;-59
2021/05/16 07:58:34;;;;;;;;;29.00;24.75;;;;;;;;8748069;40;10705;-60
2021/05/16 08:04:36;;;;;;;;;19.25;19.25;;;;;;;;8747722;40;10715;-60
2021/05/16 08:10:39;;;;;;;;;28.25;26.25;;;;;;;;8749397;40;10686;-59
2021/05/16 08:16:41;;;;;;;;;22.25;21.50;;;;;;;;8749548;40;10953;-58
2021/05/16 08:22:43;;;;;;;;;15.00;12.75;;;;;;;;8748426;40;10557;-59
2021/05/16 08:28:45;;;;;;;;;13.50;13.50;;;;;;;;8749159;40;10475;-60
2021/05/16 08:34:47;;;;;;;;;18.00;17.00;;;;;;;;8748751;40;10636;-60
2021/05/16 08:40:50;;;;;;;;;10.50;10.50;;;;;;;;8748475;40;10407;-59
2021/05/16 08:46:52;;;;;;;;;14.50;12.50;;;;;;;;8748494;40;10704;-60
2021/05/16 08:52:55;;;;;;;;;17.00;12.50;;;;;;;;8748931;40;10468;-60
2021/05/16 08:58:57;;;;;;;;;14.00;12.25;;;;;;;;8747802;40;11031;-60
2021/05/16 09:04:59;;;;;;;;;9.75;9.00;;;;;;;;8748336;40;10511;-59
2021/05/16 09:11:02;;;;;;;;;16.25;13.00;;;;;;;;8749497;40;10515;-60
2021/05/16 09:17:31;;;;;;;;;17.75;16.75;;;;;;;;8753135;40;11342;-59
2021/05/16 09:23:33;;;;;;;;;10.25;10.25;;;;;;;;8751739;40;11290;-60
2021/05/16 09:29:41;;;;;;;;;12.00;12.00;;;;;;;;8751831;40;10898;-60
2021/05/16 09:35:44;;;;;;;;;45.33;39.67;;;;;;;;8751479;40;10232;-59
2021/05/16 09:42:14;;;;;;;;;11.25;11.25;;;;;;;;8751395;40;10866;-61
2021/05/16 09:48:28;;;;;;;;;12.50;12.50;;;;;;;;8749914;40;10931;-59
2021/05/16 09:54:30;;;;;;;;;15.75;13.50;;;;;;;;8750738;40;11060;-59
2021/05/16 10:00:33;;;;;;;;;30.33;29.33;;;;;;;;8750552;40;10537;-61
2021/05/16 10:06:36;;;;;;;;;17.33;16.67;;;;;;;;8726444;40;10394;-59
2021/05/16 10:12:39;;;;;;;;;17.67;16.67;;;;;;;;8728013;40;10595;-60
2021/05/16 10:18:43;;;;;;;;;19.33;19.00;;;;;;;;8726930;40;10055;-64
2021/05/16 10:24:44;;;;;;;;;20.00;19.00;;;;;;;;8726737;40;10239;-61
2021/05/16 10:31:01;;;;;;;;;12.67;12.67;;;;;;;;8726486;40;10062;-60
2021/05/16 10:37:03;;;;;;;;;15.67;15.33;;;;;;;;8727591;40;10491;-58
2021/05/16 10:43:27;;;;;;;;;14.67;13.33;;;;;;;;8730013;40;10764;-60
2021/05/16 10:49:31;;;;;;;;;18.33;17.33;;;;;;;;8750622;40;10984;-60
2021/05/16 10:55:48;;;;;;;;;15.75;15.75;;;;;;;;8751768;40;11208;-59
2021/05/16 11:01:50;;;;;;;;;14.00;11.00;;;;;;;;8749163;40;11180;-59
2021/05/16 11:07:52;;;;;;;;;10.50;10.50;;;;;;;;8751660;40;10763;-59
2021/05/16 11:13:55;;;;;;;;;11.00;11.00;;;;;;;;8749279;40;11096;-59
2021/05/16 11:19:57;;;;;;;;;8.00;8.00;;;;;;;;8749920;40;10617;-58
2021/05/16 11:26:10;;;;;;;;;8.00;8.00;;;;;;;;8750006;40;10428;-59
2021/05/16 11:32:12;;;;;;;;;7.00;7.00;;;;;;;;8748761;40;10411;-59
2021/05/16 11:38:26;;;;;;;;;6.25;6.25;;;;;;;;8750399;40;10533;-59
2021/05/16 11:44:28;;;;;;;;;6.50;6.50;;;;;;;;8748850;40;10448;-59
2021/05/16 11:50:44;;;;;;;;;5.25;5.25;;;;;;;;8748888;40;10380;-60
2021/05/16 11:56:49;;;;;;;;;17.25;15.00;;;;;;;;8725902;40;10767;-60
2021/05/16 12:02:50;;;;;;;;;10.00;9.00;;;;;;;;8725943;40;10555;-62
2021/05/16 12:09:09;;;;;;;;;14.75;14.75;;;;;;;;8726158;40;11115;-59
2021/05/16 12:15:12;;;;;;;;;18.75;17.75;;;;;;;;8733611;40;11505;-60
2021/05/16 12:21:14;;;;;;;;;13.00;12.75;;;;;;;;8749924;40;10838;-58
2021/05/16 12:27:19;;;;;;;;;13.00;12.75;;;;;;;;8749921;40;10902;-60
2021/05/16 12:33:22;;;;;;;;;13.00;10.75;;;;;;;;8748250;40;10643;-61
2021/05/16 12:39:39;;;;;;;;;11.75;11.75;;;;;;;;8747527;40;11004;-60
2021/05/16 12:45:43;;;;;;;;;8.00;7.00;;;;;;;;8750908;40;10599;-60
2021/05/16 12:51:58;;;;;;;;;13.25;9.25;;;;;;;;8752241;40;10935;-59
2021/05/16 12:58:03;;;;;;;;;6.25;6.25;;;;;;;;8752084;40;10705;-59
2021/05/16 13:04:08;;;;;;;;;8.75;8.75;;;;;;;;8757297;40;10644;-61
2021/05/16 13:10:34;;;;;;;;;8.00;8.00;;;;;;;;8775158;40;10591;-61
2021/05/16 13:16:39;;;;;;;;;9.25;9.25;;;;;;;;8776205;40;10973;-61
2021/05/16 13:22:41;;;;;;;;;14.25;14.25;;;;;;;;8775596;40;10834;-59
2021/05/16 13:28:43;;;;;;;;;14.25;12.00;;;;;;;;8775649;40;10946;-61
2021/05/16 13:34:46;;;;;;;;;13.75;12.75;;;;;;;;8775717;40;10864;-59
2021/05/16 13:40:48;;;;;;;;;12.33;10.00;;;;;;;;8776363;40;10675;-60
2021/05/16 13:46:50;;;;;;;;;10.00;7.50;;;;;;;;8776289;40;10993;-60
2021/05/16 13:52:53;;;;;;;;;15.33;13.00;;;;;;;;8775747;40;10051;-61
2021/05/16 13:58:55;;;;;;;;;17.00;16.33;;;;;;;;8775300;40;10003;-60
2021/05/16 14:04:58;;;;;;;;;15.33;15.00;;;;;;;;8776120;40;10074;-59
2021/05/16 14:11:00;;;;;;;;;14.33;12.67;;;;;;;;8775912;40;10110;-60
2021/05/16 14:17:03;;;;;;;;;12.67;11.67;;;;;;;;8774665;40;10064;-59
2021/05/16 14:23:06;;;;;;;;;11.67;11.00;;;;;;;;8745729;40;10113;-60
2021/05/16 14:29:08;;;;;;;;;24.33;21.67;;;;;;;;8733515;40;10098;-60
2021/05/16 14:35:10;;;;;;;;;22.00;20.33;;;;;;;;8727839;40;10686;-58
2021/05/16 14:41:12;;;;;;;;;25.33;24.33;;;;;;;;8726953;40;10712;-62
2021/05/16 14:47:14;;;;;;;;;13.00;10.33;;;;;;;;8726598;40;10066;-60
2021/05/16 14:53:17;;;;;;;;;16.00;15.33;;;;;;;;8727707;40;10104;-60
2021/05/16 14:59:18;;;;;;;;;13.00;12.33;;;;;;;;8727132;40;10045;-59
2021/05/16 15:05:21;;;;;;;;;9.33;9.00;;;;;;;;8750177;40;9978;-60
2021/05/16 15:11:23;;;;;;;;;12.00;9.67;;;;;;;;8749952;40;10284;-60
2021/05/16 15:17:26;;;;;;;;;15.00;11.67;;;;;;;;8749821;40;10169;-60
2021/05/16 15:23:28;;;;;;;;;8.00;8.00;;;;;;;;8749055;40;10081;-60
2021/05/16 15:29:30;;;;;;;;;10.33;10.33;;;;;;;;8748296;40;10096;-59
2021/05/16 15:35:32;;;;;;;;;12.67;12.00;;;;;;;;8749344;40;10051;-61
2021/05/16 15:41:34;;;;;;;;;13.00;12.00;;;;;;;;8750503;40;10854;-60
2021/05/16 15:47:36;;;;;;;;;11.67;10.67;;;;;;;;8750157;40;11287;-63
2021/05/16 15:53:38;;;;;;;;;13.67;12.00;;;;;;;;8750559;40;9989;-60
2021/05/16 15:59:42;;;;;;;;;17.00;16.00;;;;;;;;8749647;40;10049;-61
2021/05/16 16:05:44;;;;;;;;;17.00;17.00;;;;;;;;8748567;40;10191;-60
2021/05/16 16:11:46;;;;;;;;;18.00;18.00;;;;;;;;8749559;40;10136;-59
2021/05/16 16:17:48;;;;;;;;;17.00;17.00;;;;;;;;8724989;40;10074;-60
2021/05/16 16:23:50;;;;;;;;;13.33;13.33;;;;;;;;8728630;40;10326;-59
2021/05/16 16:29:52;;;;;;;;;18.33;17.67;;;;;;;;8729557;40;10095;-60
2021/05/16 16:35:55;;;;;;;;;20.67;20.67;;;;;;;;8728388;40;10079;-61
2021/05/16 16:41:57;;;;;;;;;22.33;20.33;;;;;;;;8728740;40;10072;-60
2021/05/16 16:47:59;;;;;;;;;24.00;23.33;;;;;;;;8728330;40;10126;-60
2021/05/16 16:54:01;;;;;;;;;27.33;25.67;;;;;;;;8729513;40;10159;-61
2021/05/16 17:00:07;;;;;;;;;28.00;27.00;;;;;;;;8728337;40;10152;-60
2021/05/16 17:06:11;;;;;;;;;25.00;23.00;;;;;;;;8736134;40;10143;-60
2021/05/16 17:12:13;;;;;;;;;32.33;28.67;;;;;;;;8750004;40;10923;-62
2021/05/16 17:18:15;;;;;;;;;33.33;31.33;;;;;;;;8749669;40;10240;-59
2021/05/16 17:24:17;;;;;;;;;32.67;32.67;;;;;;;;8738398;40;10081;-61
2021/05/16 17:30:19;;;;;;;;;29.67;28.33;;;;;;;;8726175;40;10151;-59
2021/05/16 17:36:22;;;;;;;;;36.67;35.33;;;;;;;;8725895;40;10162;-61
2021/05/16 17:42:28;;;;;;;;;41.50;37.50;;;;;;;;8346786;40;10002229;-59
2021/05/16 17:48:39;;;;;;;;;27.00;27.00;;;;;;;;8713079;40;10637;-60
2021/05/16 17:54:43;;;;;;;;;32.00;28.00;;;;;;;;8715824;40;10144;-61
2021/05/16 18:00:45;;;;;;;;;20.33;19.00;;;;;;;;8707031;40;10165;-60
2021/05/16 18:06:47;;;;;;;;;24.67;24.67;;;;;;;;8696875;40;735749;-61
2021/05/16 18:12:50;;;;;;;;;23.67;21.33;;;;;;;;8727259;40;10163;-59
2021/05/16 18:18:53;;;;;;;;;19.00;17.33;;;;;;;;8727170;40;10966;-66
2021/05/16 18:24:55;;;;;;;;;24.00;23.00;;;;;;;;8728441;40;10151;-59
2021/05/16 18:30:57;;;;;;;;;19.00;19.00;;;;;;;;8726072;40;10488;-60
2021/05/16 18:36:59;;;;;;;;;18.67;16.67;;;;;;;;8725651;40;10164;-60
2021/05/16 18:43:02;;;;;;;;;17.00;17.00;;;;;;;;8725754;40;10277;-60
2021/05/16 18:49:04;;;;;;;;;17.00;17.00;;;;;;;;8726178;40;10104;-59
2021/05/16 18:55:09;;;;;;;;;15.33;15.33;;;;;;;;8726783;40;10135;-59
2021/05/16 19:01:11;;;;;;;;;12.67;12.67;;;;;;;;8725308;40;10099;-59
2021/05/16 19:07:16;;;;;;;;;13.00;13.00;;;;;;;;8726032;40;10662;-62
2021/05/16 19:13:18;;;;;;;;;16.33;16.33;;;;;;;;8725509;40;10092;-60
2021/05/16 19:19:20;;;;;;;;;18.00;16.67;;;;;;;;8724846;40;10085;-60
2021/05/16 19:25:22;;;;;;;;;18.00;15.33;;;;;;;;8724979;40;10142;-59
2021/05/16 19:31:23;;;;;;;;;13.00;12.00;;;;;;;;8725759;40;10038;-63
2021/05/16 19:37:25;;;;;;;;;13.00;11.67;;;;;;;;8726703;40;10582;-60
2021/05/16 19:43:28;;;;;;;;;11.33;11.33;;;;;;;;8726335;40;10104;-61
2021/05/16 19:49:30;;;;;;;;;20.67;20.67;;;;;;;;8703481;40;10296;-60
2021/05/16 19:55:32;;;;;;;;;18.33;18.00;;;;;;;;8702721;40;10093;-60
2021/05/16 20:01:34;;;;;;;;;16.67;16.67;;;;;;;;8702149;40;10774;-59
2021/05/16 20:07:38;;;;;;;;;13.33;13.33;;;;;;;;8701353;40;10134;-60
2021/05/16 20:13:40;;;;;;;;;18.00;13.67;;;;;;;;8702482;40;10176;-59
2021/05/16 20:19:42;;;;;;;;;15.67;14.00;;;;;;;;8702084;40;10063;-60
2021/05/16 20:25:44;;;;;;;;;17.67;14.67;;;;;;;;8701628;40;10750;-61
2021/05/16 20:31:47;;;;;;;;;12.00;12.00;;;;;;;;8702713;40;10159;-61
2021/05/16 20:37:50;;;;;;;;;14.00;13.00;;;;;;;;8700947;40;10106;-61
2021/05/16 20:43:52;;;;;;;;;8.00;8.00;;;;;;;;8700710;40;10112;-60
2021/05/16 20:49:55;;;;;;;;;13.67;12.67;;;;;;;;8700434;40;10126;-60
2021/05/16 20:55:57;;;;;;;;;12.67;12.67;;;;;;;;8701230;40;10050;-59
2021/05/16 21:02:02;;;;;;;;;11.00;11.00;;;;;;;;8701577;40;10255;-60
2021/05/16 21:08:07;;;;;;;;;13.00;12.00;;;;;;;;8703004;40;10091;-60
2021/05/16 21:14:09;;;;;;;;;12.00;12.00;;;;;;;;8704148;40;10363;-60
2021/05/16 21:20:12;;;;;;;;;11.67;11.33;;;;;;;;8704785;40;10031;-58
2021/05/16 21:26:14;;;;;;;;;9.00;9.00;;;;;;;;8704357;40;10116;-59
2021/05/16 21:32:16;;;;;;;;;8.33;8.33;;;;;;;;8704783;40;10082;-58
2021/05/16 21:38:18;;;;;;;;;11.67;11.33;;;;;;;;8703810;41;10105;-59
2021/05/16 21:44:20;;;;;;;;;12.33;12.33;;;;;;;;8704834;40;10063;-59
2021/05/16 21:50:23;;;;;;;;;13.67;13.00;;;;;;;;8702327;40;10111;-59
2021/05/16 21:56:25;;;;;;;;;14.33;12.67;;;;;;;;8703634;40;10147;-59
2021/05/16 22:02:27;;;;;;;;;16.33;16.33;;;;;;;;8703027;41;10063;-57
2021/05/16 22:08:29;;;;;;;;;18.00;18.00;;;;;;;;8702311;40;10072;-60
2021/05/16 22:14:32;;;;;;;;;18.33;18.33;;;;;;;;8703220;40;10158;-59
2021/05/16 22:20:34;;;;;;;;;18.25;18.00;;;;;;;;8702583;40;10806;-58
2021/05/16 22:26:36;;;;;;;;;22.50;17.00;;;;;;;;8704201;40;10630;-59
2021/05/16 22:32:38;;;;;;;;;26.00;21.50;;;;;;;;8702856;40;10946;-59
2021/05/16 22:38:40;;;;;;;;;21.67;20.33;;;;;;;;8703353;40;10774;-57
2021/05/16 22:44:42;;;;;;;;;22.00;21.67;;;;;;;;8702673;40;10151;-58
2021/05/16 22:50:44;;;;;;;;;18.33;17.33;;;;;;;;8702591;40;10577;-57
2021/05/16 22:56:46;;;;;;;;;22.00;18.00;;;;;;;;8703701;40;10336;-58
2021/05/16 23:02:48;;;;;;;;;19.00;18.25;;;;;;;;8703211;40;10621;-59
2021/05/16 23:08:59;;;;;;;;;23.00;19.75;;;;;;;;8703075;40;10727;-57
2021/05/16 23:15:01;;;;;;;;;21.00;19.50;;;;;;;;8702240;40;11130;-58
2021/05/16 23:21:03;;;;;;;;;20.50;20.00;;;;;;;;8703167;40;10551;-58
2021/05/16 23:27:06;;;;;;;;;22.00;19.67;;;;;;;;8702081;40;10383;-58
2021/05/16 23:33:08;;;;;;;;;21.00;20.33;;;;;;;;8701780;40;10128;-59
2021/05/16 23:39:10;;;;;;;;;20.00;17.75;;;;;;;;8701519;40;10570;-58
2021/05/16 23:45:13;;;;;;;;;19.67;17.67;;;;;;;;8701868;41;10180;-58
2021/05/16 23:51:16;;;;;;;;;20.25;20.25;;;;;;;;8701647;40;10531;-57
2021/05/16 23:57:18;;;;;;;;;18.00;18.00;;;;;;;;8701670;40;10674;-58
